Time,TemperatureF,DewpointF,PressureIn,WindDirection,WindDirectionDegrees,WindSpeedMPH,WindSpeedGustMPH,Humidity,HourlyPrecipIn,Conditions,Clouds,dailyrainin,SoftwareType,DateUTC
2012-11-15 00:00:00,43.7,42.4,30.23,NE,45,0.0,2.5,95,0.00,,,0.00,WUHU216HW,2012-11-15 08:00:00,
2012-11-15 00:05:00,43.7,42.4,30.23,ENE,68,1.8,2.5,95,0.00,,,0.00,WUHU216HW,2012-11-15 08:05:00,
2012-11-15 00:10:00,43.7,42.4,30.23,NNE,23,1.8,2.5,95,0.00,,,0.00,WUHU216HW,2012-11-15 08:10:00,
2012-11-15 00:15:00,43.7,42.4,30.23,NNE,23,2.5,2.5,95,0.00,,,0.00,WUHU216HW,2012-11-15 08:15:00,
2012-11-15 00:20:00,43.7,42.4,30.23,NNE,23,3.1,3.1,95,0.00,,,0.00,WUHU216HW,2012-11-15 08:20:00,
2012-11-15 00:25:00,43.7,42.4,30.23,NNE,23,3.4,3.4,95,0.00,,,0.00,WUHU216HW,2012-11-15 08:25:00,
2012-11-15 00:30:00,43.7,42.4,30.23,East,90,1.8,4.7,95,0.00,,,0.00,WUHU216HW,2012-11-15 08:30:00,
2012-11-15 00:35:00,43.7,42.4,30.23,NNE,23,1.3,4.7,95,0.00,,,0.00,WUHU216HW,2012-11-15 08:35:00,
2012-11-15 00:40:00,43.9,42.6,30.22,NE,45,1.1,2.7,95,0.00,,,0.00,WUHU216HW,2012-11-15 08:40:00,
2012-11-15 00:45:00,43.9,42.6,30.22,NNE,23,3.1,3.1,95,0.00,,,0.00,WUHU216HW,2012-11-15 08:45:00,
2012-11-15 00:50:00,43.9,42.6,30.22,NE,45,1.1,3.1,95,0.00,,,0.00,WUHU216HW,2012-11-15 08:50:00,
2012-11-15 00:55:00,43.9,42.6,30.22,NNE,23,1.3,2.7,95,0.00,,,0.00,WUHU216HW,2012-11-15 08:55:00,
2012-11-15 01:00:00,43.9,42.6,30.22,NNE,23,1.6,2.9,95,0.00,,,0.00,WUHU216HW,2012-11-15 09:00:00,
2012-11-15 01:05:00,43.9,42.6,30.22,North,0,1.8,3.1,95,0.00,,,0.00,WUHU216HW,2012-11-15 09:05:00,
2012-11-15 01:10:00,43.9,42.6,30.21,North,0,0.7,3.1,95,0.00,,,0.00,WUHU216HW,2012-11-15 09:10:00,
2012-11-15 01:15:00,43.9,42.6,30.21,NE,45,0.7,1.8,95,0.00,,,0.00,WUHU216HW,2012-11-15 09:15:00,
2012-11-15 01:20:00,43.9,42.6,30.21,NE,45,0.9,2.5,95,0.00,,,0.00,WUHU216HW,2012-11-15 09:20:00,
2012-11-15 01:25:00,43.9,42.6,30.21,North,0,1.1,3.8,95,0.00,,,0.00,WUHU216HW,2012-11-15 09:25:00,
2012-11-15 01:30:00,43.7,42.4,30.20,NE,45,0.4,4.0,95,0.00,,,0.00,WUHU216HW,2012-11-15 09:30:00,
2012-11-15 01:35:00,43.7,42.4,30.20,North,0,3.6,4.5,95,0.00,,,0.00,WUHU216HW,2012-11-15 09:35:00,
2012-11-15 01:40:00,43.7,42.4,30.21,NNE,23,0.4,4.5,95,0.00,,,0.00,WUHU216HW,2012-11-15 09:40:00,
2012-11-15 01:45:00,43.7,42.4,30.21,ENE,68,1.1,3.6,95,0.00,,,0.00,WUHU216HW,2012-11-15 09:45:00,
2012-11-15 01:50:00,43.7,42.4,30.21,SSE,158,2.0,2.5,95,0.00,,,0.00,WUHU216HW,2012-11-15 09:50:00,
2012-11-15 01:55:00,43.7,42.4,30.20,North,0,1.6,2.9,95,0.00,,,0.00,WUHU216HW,2012-11-15 09:55:00,
2012-11-15 02:00:00,43.7,42.4,30.20,ENE,68,2.2,2.9,95,0.00,,,0.00,WUHU216HW,2012-11-15 10:00:00,
2012-11-15 02:05:00,43.7,42.4,30.20,ENE,68,4.0,5.1,95,0.00,,,0.00,WUHU216HW,2012-11-15 10:05:00,
2012-11-15 02:10:00,43.7,42.4,30.20,North,0,3.8,5.1,95,0.00,,,0.00,WUHU216HW,2012-11-15 10:10:00,
2012-11-15 02:15:00,43.7,42.4,30.20,NNE,23,1.6,3.8,95,0.00,,,0.00,WUHU216HW,2012-11-15 10:15:00,
2012-11-15 02:20:00,43.6,42.2,30.20,NE,45,2.9,3.8,95,0.00,,,0.00,WUHU216HW,2012-11-15 10:20:00,
2012-11-15 02:25:00,43.6,42.2,30.20,NNW,338,1.8,6.9,95,0.00,,,0.00,WUHU216HW,2012-11-15 10:25:00,
2012-11-15 02:30:00,43.6,42.2,30.20,NNE,23,0.2,6.9,95,0.00,,,0.00,WUHU216HW,2012-11-15 10:30:00,
2012-11-15 02:35:00,43.6,42.2,30.20,NNE,23,0.9,3.6,95,0.00,,,0.00,WUHU216HW,2012-11-15 10:35:00,
2012-11-15 02:40:00,43.6,42.2,30.19,NE,45,4.9,6.0,95,0.00,,,0.00,WUHU216HW,2012-11-15 10:40:00,
2012-11-15 02:45:00,43.4,42.0,30.19,SE,135,0.4,7.4,95,0.00,,,0.00,WUHU216HW,2012-11-15 10:45:00,
2012-11-15 02:50:00,43.4,42.0,30.19,North,0,3.6,7.4,95,0.00,,,0.00,WUHU216HW,2012-11-15 10:50:00,
2012-11-15 02:55:00,43.2,41.9,30.19,NNE,23,0.4,4.7,95,0.00,,,0.00,WUHU216HW,2012-11-15 10:55:00,
2012-11-15 03:00:00,43.2,41.9,30.18,NNE,23,2.5,4.5,95,0.00,,,0.00,WUHU216HW,2012-11-15 11:00:00,
2012-11-15 03:05:00,43.2,41.9,30.18,North,0,1.1,3.6,95,0.00,,,0.00,WUHU216HW,2012-11-15 11:05:00,
2012-11-15 03:10:00,43.2,41.9,30.18,NE,45,0.9,4.9,95,0.00,,,0.00,WUHU216HW,2012-11-15 11:10:00,
2012-11-15 03:15:00,43.2,41.9,30.18,NNE,23,3.1,4.9,95,0.00,,,0.00,WUHU216HW,2012-11-15 11:15:00,
2012-11-15 03:20:00,43.0,41.7,30.17,NNW,338,0.7,3.6,95,0.00,,,0.00,WUHU216HW,2012-11-15 11:20:00,
2012-11-15 03:25:00,43.0,41.7,30.17,SE,135,2.0,3.4,95,0.00,,,0.00,WUHU216HW,2012-11-15 11:25:00,
2012-11-15 03:30:00,43.0,41.7,30.17,NE,45,2.0,3.6,95,0.00,,,0.00,WUHU216HW,2012-11-15 11:30:00,
2012-11-15 03:35:00,42.8,41.5,30.17,North,0,2.2,3.6,95,0.00,,,0.00,WUHU216HW,2012-11-15 11:35:00,
2012-11-15 03:40:00,42.8,41.5,30.17,NE,45,2.2,3.4,95,0.00,,,0.00,WUHU216HW,2012-11-15 11:40:00,
2012-11-15 03:45:00,42.8,41.5,30.17,NNW,338,2.5,6.3,95,0.00,,,0.00,WUHU216HW,2012-11-15 11:45:00,
2012-11-15 03:50:00,42.8,41.5,30.17,North,0,1.8,6.3,95,0.00,,,0.00,WUHU216HW,2012-11-15 11:50:00,
2012-11-15 03:55:00,42.8,41.5,30.17,ENE,68,4.7,4.9,95,0.00,,,0.00,WUHU216HW,2012-11-15 11:55:00,
2012-11-15 04:00:00,42.8,41.5,30.17,NNE,23,4.7,5.4,95,0.00,,,0.00,WUHU216HW,2012-11-15 12:00:00,
2012-11-15 04:05:00,42.8,41.5,30.16,SE,135,2.2,5.4,95,0.00,,,0.00,WUHU216HW,2012-11-15 12:05:00,
2012-11-15 04:10:00,42.7,41.3,30.17,NNW,338,4.0,4.9,95,0.00,,,0.00,WUHU216HW,2012-11-15 12:10:00,
2012-11-15 04:15:00,42.7,41.3,30.16,NNE,23,1.8,4.9,95,0.00,,,0.00,WUHU216HW,2012-11-15 12:15:00,
2012-11-15 04:20:00,42.5,41.1,30.17,NNW,338,3.6,4.0,95,0.00,,,0.00,WUHU216HW,2012-11-15 12:20:00,
2012-11-15 04:25:00,42.5,41.1,30.16,NNW,338,1.3,4.3,95,0.00,,,0.00,WUHU216HW,2012-11-15 12:25:00,
2012-11-15 04:30:00,42.5,41.1,30.16,North,0,1.1,4.3,95,0.00,,,0.00,WUHU216HW,2012-11-15 12:30:00,
2012-11-15 04:35:00,42.7,41.3,30.16,North,0,4.7,6.7,95,0.00,,,0.00,WUHU216HW,2012-11-15 12:35:00,
2012-11-15 04:40:00,42.5,41.1,30.16,ENE,68,2.9,6.7,95,0.00,,,0.00,WUHU216HW,2012-11-15 12:40:00,
2012-11-15 04:45:00,42.7,41.3,30.15,ENE,68,2.2,6.0,95,0.00,,,0.00,WUHU216HW,2012-11-15 12:45:00,
2012-11-15 04:50:00,42.7,41.3,30.15,NNE,23,2.5,5.4,95,0.00,,,0.00,WUHU216HW,2012-11-15 12:50:00,
2012-11-15 04:55:00,42.7,41.3,30.15,North,0,5.1,5.4,95,0.00,,,0.00,WUHU216HW,2012-11-15 12:55:00,
2012-11-15 05:00:00,42.5,41.1,30.15,North,0,2.9,5.4,95,0.00,,,0.00,WUHU216HW,2012-11-15 13:00:00,
2012-11-15 05:05:00,42.5,41.1,30.15,ENE,68,4.0,6.7,95,0.00,,,0.00,WUHU216HW,2012-11-15 13:05:00,
2012-11-15 05:10:00,42.5,41.1,30.15,NNE,23,1.6,6.7,95,0.00,,,0.00,WUHU216HW,2012-11-15 13:10:00,
2012-11-15 05:15:00,42.5,41.1,30.15,NNE,23,1.8,4.3,95,0.00,,,0.00,WUHU216HW,2012-11-15 13:15:00,
2012-11-15 05:20:00,42.5,41.1,30.15,NW,315,2.5,5.4,95,0.00,,,0.00,WUHU216HW,2012-11-15 13:20:00,
2012-11-15 05:25:00,42.5,41.1,30.15,NE,45,0.9,5.4,95,0.00,,,0.00,WUHU216HW,2012-11-15 13:25:00,
2012-11-15 05:30:00,42.5,41.1,30.14,NNE,23,1.6,5.6,95,0.00,,,0.00,WUHU216HW,2012-11-15 13:30:00,
2012-11-15 05:35:00,42.5,41.1,30.14,NNE,23,2.0,5.6,95,0.00,,,0.00,WUHU216HW,2012-11-15 13:35:00,
2012-11-15 05:40:00,42.5,41.1,30.14,NW,315,0.4,3.6,95,0.00,,,0.00,WUHU216HW,2012-11-15 13:40:00,
2012-11-15 05:45:00,42.7,41.3,30.13,NNE,23,3.8,4.0,95,0.00,,,0.00,WUHU216HW,2012-11-15 13:45:00,
2012-11-15 05:50:00,42.5,41.1,30.14,ESE,113,1.8,5.1,95,0.00,,,0.00,WUHU216HW,2012-11-15 13:50:00,
2012-11-15 05:55:00,42.7,41.3,30.13,NNE,23,3.8,5.1,95,0.00,,,0.00,WUHU216HW,2012-11-15 13:55:00,
2012-11-15 06:00:00,42.7,41.3,30.13,ENE,68,1.8,7.6,95,0.00,,,0.00,WUHU216HW,2012-11-15 14:00:00,
2012-11-15 06:05:00,42.5,41.1,30.13,East,90,2.9,7.6,95,0.00,,,0.00,WUHU216HW,2012-11-15 14:05:00,
2012-11-15 06:10:00,42.5,41.1,30.13,NNE,23,0.7,4.7,95,0.00,,,0.00,WUHU216HW,2012-11-15 14:10:00,
2012-11-15 06:15:00,42.5,41.1,30.12,North,0,0.7,4.7,95,0.00,,,0.00,WUHU216HW,2012-11-15 14:15:00,
2012-11-15 06:20:00,42.5,41.1,30.13,NE,45,4.5,5.1,95,0.00,,,0.00,WUHU216HW,2012-11-15 14:20:00,
2012-11-15 06:25:00,42.5,41.1,30.12,NNE,23,4.3,5.4,95,0.00,,,0.00,WUHU216HW,2012-11-15 14:25:00,
2012-11-15 06:30:00,42.5,41.1,30.12,North,0,5.8,5.8,95,0.00,,,0.00,WUHU216HW,2012-11-15 14:30:00,
2012-11-15 06:35:00,42.7,41.3,30.12,NNE,23,3.6,5.8,95,0.00,,,0.00,WUHU216HW,2012-11-15 14:35:00,
2012-11-15 06:40:00,42.5,41.1,30.12,NW,315,3.8,5.8,95,0.00,,,0.00,WUHU216HW,2012-11-15 14:40:00,
2012-11-15 06:45:00,42.5,41.1,30.12,NE,45,3.4,4.3,95,0.00,,,0.00,WUHU216HW,2012-11-15 14:45:00,
2012-11-15 06:50:00,42.5,41.1,30.12,SE,135,0.9,6.0,95,0.00,,,0.00,WUHU216HW,2012-11-15 14:50:00,
2012-11-15 06:55:00,42.7,41.3,30.12,ESE,113,2.5,6.0,95,0.00,,,0.00,WUHU216HW,2012-11-15 14:55:00,
2012-11-15 07:00:00,42.5,41.1,30.12,NE,45,2.5,7.8,95,0.00,,,0.00,WUHU216HW,2012-11-15 15:00:00,
2012-11-15 07:05:00,42.5,41.1,30.12,NNE,23,1.1,7.8,95,0.00,,,0.00,WUHU216HW,2012-11-15 15:05:00,
2012-11-15 07:10:00,42.7,41.3,30.12,SE,135,2.0,6.7,95,0.00,,,0.00,WUHU216HW,2012-11-15 15:10:00,
2012-11-15 07:15:00,42.7,41.3,30.12,NE,45,2.7,4.0,95,0.00,,,0.00,WUHU216HW,2012-11-15 15:15:00,
2012-11-15 07:20:00,42.5,41.1,30.12,NW,315,0.4,5.1,95,0.00,,,0.00,WUHU216HW,2012-11-15 15:20:00,
2012-11-15 07:25:00,42.5,41.1,30.12,NNW,338,4.0,5.6,95,0.00,,,0.00,WUHU216HW,2012-11-15 15:25:00,
2012-11-15 07:30:00,42.7,41.3,30.11,NE,45,3.4,5.6,95,0.00,,,0.00,WUHU216HW,2012-11-15 15:30:00,
2012-11-15 07:35:00,42.7,41.3,30.11,NE,45,2.2,8.7,95,0.00,,,0.00,WUHU216HW,2012-11-15 15:35:00,
2012-11-15 07:40:00,42.7,41.3,30.11,ESE,113,2.2,8.7,95,0.00,,,0.00,WUHU216HW,2012-11-15 15:40:00,
2012-11-15 07:45:00,42.7,41.3,30.11,NE,45,4.9,5.8,95,0.00,,,0.00,WUHU216HW,2012-11-15 15:45:00,
2012-11-15 07:50:00,42.7,41.3,30.11,NNE,23,1.8,5.8,95,0.00,,,0.00,WUHU216HW,2012-11-15 15:50:00,
2012-11-15 07:55:00,42.8,41.5,30.10,NNE,23,2.2,4.9,95,0.00,,,0.00,WUHU216HW,2012-11-15 15:55:00,
2012-11-15 08:00:00,42.8,41.5,30.10,NE,45,3.8,7.6,95,0.00,,,0.00,WUHU216HW,2012-11-15 16:00:00,
2012-11-15 08:05:00,42.8,41.5,30.10,NNE,23,1.3,7.6,95,0.00,,,0.00,WUHU216HW,2012-11-15 16:05:00,
2012-11-15 08:10:00,42.8,41.5,30.10,NNE,23,4.7,6.9,95,0.00,,,0.00,WUHU216HW,2012-11-15 16:10:00,
2012-11-15 08:15:00,43.0,41.7,30.10,NE,45,2.0,6.0,95,0.00,,,0.00,WUHU216HW,2012-11-15 16:15:00,
2012-11-15 08:20:00,43.2,41.9,30.10,NNE,23,4.7,6.0,95,0.00,,,0.00,WUHU216HW,2012-11-15 16:20:00,
2012-11-15 08:25:00,43.2,41.9,30.10,NNE,23,6.7,6.7,95,0.00,,,0.00,WUHU216HW,2012-11-15 16:25:00,
2012-11-15 08:30:00,43.2,41.9,30.10,ENE,68,1.1,6.7,95,0.00,,,0.00,WUHU216HW,2012-11-15 16:30:00,
2012-11-15 08:35:00,43.2,41.9,30.10,NE,45,5.6,6.7,95,0.00,,,0.00,WUHU216HW,2012-11-15 16:35:00,
2012-11-15 08:40:00,43.2,41.9,30.09,NE,45,3.4,7.4,95,0.00,,,0.00,WUHU216HW,2012-11-15 16:40:00,
2012-11-15 08:45:00,43.2,41.9,30.09,NE,45,1.1,7.4,95,0.00,,,0.00,WUHU216HW,2012-11-15 16:45:00,
2012-11-15 08:50:00,42.8,41.5,30.09,NE,45,2.7,6.9,95,0.00,,,0.00,WUHU216HW,2012-11-15 16:50:00,
2012-11-15 08:55:00,42.8,41.5,30.09,ESE,113,3.4,7.6,95,0.00,,,0.00,WUHU216HW,2012-11-15 16:55:00,
2012-11-15 09:00:00,42.8,41.5,30.09,NE,45,2.2,7.8,95,0.00,,,0.00,WUHU216HW,2012-11-15 17:00:00,
2012-11-15 09:05:00,42.8,41.5,30.09,North,0,1.8,7.8,95,0.00,,,0.00,WUHU216HW,2012-11-15 17:05:00,
2012-11-15 09:10:00,42.8,41.5,30.09,NNE,23,2.9,5.6,95,0.00,,,0.00,WUHU216HW,2012-11-15 17:10:00,
2012-11-15 09:15:00,42.8,41.5,30.09,ESE,113,2.7,4.0,95,0.00,,,0.00,WUHU216HW,2012-11-15 17:15:00,
2012-11-15 09:20:00,42.8,41.5,30.09,NE,45,4.0,4.9,95,0.00,,,0.00,WUHU216HW,2012-11-15 17:20:00,
2012-11-15 09:25:00,43.0,41.7,30.08,ENE,68,4.0,5.8,95,0.00,,,0.00,WUHU216HW,2012-11-15 17:25:00,
2012-11-15 09:30:00,43.0,41.7,30.08,NE,45,6.9,6.9,95,0.00,,,0.00,WUHU216HW,2012-11-15 17:30:00,
2012-11-15 09:35:00,43.0,41.7,30.08,NNE,23,2.2,8.9,95,0.00,,,0.00,WUHU216HW,2012-11-15 17:35:00,
2012-11-15 09:40:00,43.0,41.7,30.07,ENE,68,4.7,8.9,95,0.00,,,0.00,WUHU216HW,2012-11-15 17:40:00,
2012-11-15 09:45:00,43.0,41.7,30.07,NNW,338,4.5,4.9,95,0.00,,,0.00,WUHU216HW,2012-11-15 17:45:00,
2012-11-15 09:50:00,43.0,41.7,30.07,NE,45,4.7,6.9,95,0.00,,,0.00,WUHU216HW,2012-11-15 17:50:00,
2012-11-15 09:55:00,42.8,41.5,30.07,North,0,2.0,7.6,95,0.00,,,0.00,WUHU216HW,2012-11-15 17:55:00,
2012-11-15 10:00:00,42.8,41.5,30.07,NNE,23,2.7,7.6,95,0.00,,,0.00,WUHU216HW,2012-11-15 18:00:00,
2012-11-15 10:05:00,43.0,41.7,30.07,NNE,23,8.7,8.7,95,0.00,,,0.00,WUHU216HW,2012-11-15 18:05:00,
2012-11-15 10:10:00,43.0,41.7,30.06,NNE,23,4.3,8.7,95,0.00,,,0.00,WUHU216HW,2012-11-15 18:10:00,
2012-11-15 10:15:00,43.2,41.9,30.06,NE,45,5.4,8.7,95,0.00,,,0.00,WUHU216HW,2012-11-15 18:15:00,
2012-11-15 10:20:00,43.2,41.9,30.06,ENE,68,2.2,7.4,95,0.00,,,0.00,WUHU216HW,2012-11-15 18:20:00,
2012-11-15 10:25:00,43.4,42.0,30.06,NNE,23,4.5,7.6,95,0.00,,,0.00,WUHU216HW,2012-11-15 18:25:00,
2012-11-15 10:30:00,43.4,42.0,30.06,NE,45,2.5,7.6,95,0.00,,,0.00,WUHU216HW,2012-11-15 18:30:00,
2012-11-15 10:35:00,43.6,42.2,30.06,West,270,2.0,4.7,95,0.00,,,0.00,WUHU216HW,2012-11-15 18:35:00,
2012-11-15 10:40:00,43.7,42.4,30.06,NNW,338,4.7,5.4,95,0.00,,,0.00,WUHU216HW,2012-11-15 18:40:00,
2012-11-15 10:45:00,43.9,42.6,30.06,NNE,23,1.3,5.4,95,0.00,,,0.00,WUHU216HW,2012-11-15 18:45:00,
2012-11-15 10:50:00,43.9,42.6,30.05,NNE,23,4.7,4.7,95,0.00,,,0.00,WUHU216HW,2012-11-15 18:50:00,
2012-11-15 10:55:00,44.1,42.8,30.05,NNW,338,0.4,4.7,95,0.00,,,0.00,WUHU216HW,2012-11-15 18:55:00,
2012-11-15 11:00:00,44.1,42.8,30.04,NW,315,0.9,5.1,95,0.00,,,0.00,WUHU216HW,2012-11-15 19:00:00,
2012-11-15 11:05:00,44.3,42.9,30.04,North,0,0.9,5.1,95,0.00,,,0.00,WUHU216HW,2012-11-15 19:05:00,
2012-11-15 11:10:00,44.3,42.7,30.04,NNE,23,2.7,3.4,94,0.00,,,0.00,WUHU216HW,2012-11-15 19:10:00,
2012-11-15 11:15:00,44.3,42.7,30.04,NE,45,1.8,3.4,94,0.00,,,0.00,WUHU216HW,2012-11-15 19:15:00,
2012-11-15 11:20:00,44.3,42.7,30.04,NE,45,2.5,4.0,94,0.00,,,0.00,WUHU216HW,2012-11-15 19:20:00,
2012-11-15 11:25:00,44.5,42.8,30.03,NE,45,1.6,4.0,94,0.00,,,0.00,WUHU216HW,2012-11-15 19:25:00,
2012-11-15 11:30:00,44.6,43.0,30.03,ENE,68,4.0,4.0,94,0.00,,,0.00,WUHU216HW,2012-11-15 19:30:00,
2012-11-15 11:35:00,44.8,43.2,30.03,North,0,0.4,4.0,94,0.00,,,0.00,WUHU216HW,2012-11-15 19:35:00,
2012-11-15 11:40:00,45.0,43.4,30.02,NNW,338,0.7,4.0,94,0.00,,,0.00,WUHU216HW,2012-11-15 19:40:00,
2012-11-15 11:45:00,45.2,43.6,30.02,NE,45,0.4,4.0,94,0.00,,,0.00,WUHU216HW,2012-11-15 19:45:00,
2012-11-15 11:50:00,45.2,43.6,30.02,NE,45,0.4,4.0,94,0.00,,,0.00,WUHU216HW,2012-11-15 19:50:00,
2012-11-15 11:55:00,45.4,43.7,30.02,ESE,113,2.9,3.1,94,0.00,,,0.00,WUHU216HW,2012-11-15 19:55:00,
2012-11-15 12:00:00,45.4,43.7,30.02,NE,45,1.6,4.0,94,0.00,,,0.00,WUHU216HW,2012-11-15 20:00:00,
2012-11-15 12:05:00,45.2,43.6,30.01,NE,45,1.6,4.7,94,0.00,,,0.00,WUHU216HW,2012-11-15 20:05:00,
2012-11-15 12:10:00,45.2,43.3,30.01,NNE,23,1.8,4.7,93,0.00,,,0.00,WUHU216HW,2012-11-15 20:10:00,
2012-11-15 12:15:00,45.4,43.5,30.01,NE,45,0.4,2.9,93,0.00,,,0.00,WUHU216HW,2012-11-15 20:15:00,
2012-11-15 12:20:00,45.4,43.5,30.01,SE,135,0.7,2.9,93,0.00,,,0.00,WUHU216HW,2012-11-15 20:20:00,
2012-11-15 12:25:00,45.4,43.5,30.00,NNE,23,1.1,2.7,93,0.00,,,0.00,WUHU216HW,2012-11-15 20:25:00,
2012-11-15 12:30:00,45.4,43.5,30.00,NE,45,3.4,4.0,93,0.00,,,0.00,WUHU216HW,2012-11-15 20:30:00,
2012-11-15 12:35:00,45.4,43.5,30.00,SE,135,1.3,4.0,93,0.00,,,0.00,WUHU216HW,2012-11-15 20:35:00,
2012-11-15 12:40:00,45.4,43.5,30.00,NE,45,0.4,4.0,93,0.00,,,0.00,WUHU216HW,2012-11-15 20:40:00,
2012-11-15 12:45:00,45.5,43.7,30.00,ENE,68,1.1,4.0,93,0.00,,,0.00,WUHU216HW,2012-11-15 20:45:00,
2012-11-15 12:50:00,45.4,43.5,30.00,East,90,1.1,2.5,93,0.00,,,0.00,WUHU216HW,2012-11-15 20:50:00,
2012-11-15 12:55:00,45.4,43.5,30.00,ESE,113,0.9,3.6,93,0.00,,,0.00,WUHU216HW,2012-11-15 20:55:00,
2012-11-15 13:00:00,45.4,43.5,30.00,NE,45,0.9,3.6,93,0.00,,,0.00,WUHU216HW,2012-11-15 21:00:00,
2012-11-15 13:05:00,45.4,43.5,30.00,NE,45,0.4,3.6,93,0.00,,,0.00,WUHU216HW,2012-11-15 21:05:00,
2012-11-15 13:10:00,45.5,43.7,29.99,NNE,23,1.3,2.7,93,0.00,,,0.00,WUHU216HW,2012-11-15 21:10:00,
2012-11-15 13:15:00,45.5,43.7,29.99,NE,45,2.0,2.7,93,0.00,,,0.00,WUHU216HW,2012-11-15 21:15:00,
2012-11-15 13:20:00,45.5,43.7,29.99,NNE,23,0.7,2.5,93,0.00,,,0.00,WUHU216HW,2012-11-15 21:20:00,
2012-11-15 13:25:00,45.5,43.7,29.99,NW,315,1.1,2.5,93,0.00,,,0.00,WUHU216HW,2012-11-15 21:25:00,
2012-11-15 13:30:00,45.7,43.8,29.99,West,270,0.2,2.5,93,0.00,,,0.00,WUHU216HW,2012-11-15 21:30:00,
2012-11-15 13:35:00,45.7,43.8,29.99,WSW,248,0.7,2.5,93,0.00,,,0.00,WUHU216HW,2012-11-15 21:35:00,
2012-11-15 13:40:00,45.7,43.8,29.99,South,180,0.4,1.1,93,0.00,,,0.00,WUHU216HW,2012-11-15 21:40:00,
2012-11-15 13:45:00,45.9,44.3,29.99,WSW,248,2.5,2.5,94,0.00,,,0.00,WUHU216HW,2012-11-15 21:45:00,
2012-11-15 13:50:00,46.1,44.5,29.99,ENE,68,0.4,2.5,94,0.00,,,0.00,WUHU216HW,2012-11-15 21:50:00,
2012-11-15 13:55:00,46.1,44.5,29.99,ENE,68,1.1,1.6,94,0.00,,,0.00,WUHU216HW,2012-11-15 21:55:00,
2012-11-15 14:00:00,46.1,44.5,29.99,ENE,68,2.5,2.9,94,0.00,,,0.00,WUHU216HW,2012-11-15 22:00:00,
2012-11-15 14:05:00,45.9,44.3,29.99,NE,45,0.9,2.9,94,0.00,,,0.00,WUHU216HW,2012-11-15 22:05:00,
2012-11-15 14:10:00,45.7,43.8,29.98,NNE,23,1.8,2.5,93,0.00,,,0.00,WUHU216HW,2012-11-15 22:10:00,
2012-11-15 14:15:00,45.7,43.8,29.98,East,90,1.1,1.8,93,0.00,,,0.00,WUHU216HW,2012-11-15 22:15:00,
2012-11-15 14:20:00,45.7,43.8,29.98,East,90,1.1,1.8,93,0.00,,,0.00,WUHU216HW,2012-11-15 22:20:00,
2012-11-15 14:25:00,45.5,43.7,29.98,East,90,0.7,1.8,93,0.00,,,0.00,WUHU216HW,2012-11-15 22:25:00,
2012-11-15 14:30:00,45.4,43.5,29.98,East,90,0.2,1.3,93,0.00,,,0.00,WUHU216HW,2012-11-15 22:30:00,
2012-11-15 14:35:00,45.5,43.7,29.98,East,90,0.0,1.1,93,0.00,,,0.00,WUHU216HW,2012-11-15 22:35:00,
2012-11-15 14:40:00,45.4,43.5,29.98,ENE,68,0.0,0.2,93,0.00,,,0.00,WUHU216HW,2012-11-15 22:40:00,
2012-11-15 14:45:00,45.4,43.5,29.97,ENE,68,0.4,0.4,93,0.00,,,0.00,WUHU216HW,2012-11-15 22:45:00,
2012-11-15 14:50:00,45.4,43.5,29.97,North,0,0.7,0.7,93,0.00,,,0.00,WUHU216HW,2012-11-15 22:50:00,
2012-11-15 14:55:00,45.4,43.5,29.97,North,0,0.4,1.1,93,0.00,,,0.00,WUHU216HW,2012-11-15 22:55:00,
2012-11-15 15:00:00,45.4,43.5,29.97,NE,45,0.4,1.6,93,0.00,,,0.00,WUHU216HW,2012-11-15 23:00:00,
2012-11-15 15:05:00,45.2,43.3,29.97,NE,45,0.0,1.6,93,0.00,,,0.00,WUHU216HW,2012-11-15 23:05:00,
2012-11-15 15:10:00,45.2,43.3,29.97,NE,45,0.4,0.4,93,0.00,,,0.00,WUHU216HW,2012-11-15 23:10:00,
2012-11-15 15:15:00,45.2,43.3,29.97,NNE,23,0.4,0.4,93,0.00,,,0.00,WUHU216HW,2012-11-15 23:15:00,
2012-11-15 15:20:00,45.2,43.3,29.97,NNW,338,0.4,1.1,93,0.00,,,0.00,WUHU216HW,2012-11-15 23:20:00,
2012-11-15 15:25:00,45.0,43.1,29.97,SW,225,1.8,1.8,93,0.00,,,0.00,WUHU216HW,2012-11-15 23:25:00,
2012-11-15 15:30:00,45.0,43.1,29.97,SW,225,1.1,1.8,93,0.00,,,0.00,WUHU216HW,2012-11-15 23:30:00,
2012-11-15 15:35:00,45.0,43.1,29.97,SW,225,0.9,1.8,93,0.00,,,0.00,WUHU216HW,2012-11-15 23:35:00,
2012-11-15 15:40:00,44.8,42.9,29.97,SW,225,0.4,1.8,93,0.00,,,0.00,WUHU216HW,2012-11-15 23:40:00,
2012-11-15 15:45:00,44.8,42.9,29.97,SW,225,0.0,1.1,93,0.00,,,0.00,WUHU216HW,2012-11-15 23:45:00,
2012-11-15 15:50:00,44.6,42.8,29.97,SW,225,0.0,0.9,93,0.00,,,0.00,WUHU216HW,2012-11-15 23:50:00,
2012-11-15 15:55:00,44.6,42.8,29.96,SW,225,0.0,0.0,93,0.00,,,0.00,WUHU216HW,2012-11-15 23:55:00,
2012-11-15 16:00:00,44.5,42.6,29.96,SW,225,1.1,1.1,93,0.00,,,0.00,WUHU216HW,2012-11-16 00:00:00,
2012-11-15 16:05:00,44.5,42.6,29.96,SW,225,0.9,1.1,93,0.00,,,0.00,WUHU216HW,2012-11-16 00:05:00,
2012-11-15 16:10:00,44.3,42.4,29.96,SW,225,0.4,1.1,93,0.00,,,0.00,WUHU216HW,2012-11-16 00:10:00,
2012-11-15 16:15:00,44.1,42.2,29.96,WSW,248,1.1,1.3,93,0.00,,,0.00,WUHU216HW,2012-11-16 00:15:00,
2012-11-15 16:20:00,43.9,42.0,29.96,WSW,248,0.7,1.6,93,0.00,,,0.00,WUHU216HW,2012-11-16 00:20:00,
2012-11-15 16:25:00,43.7,41.9,29.96,West,270,0.7,1.8,93,0.00,,,0.00,WUHU216HW,2012-11-16 00:25:00,
2012-11-15 16:30:00,43.6,41.7,29.96,West,270,2.0,2.0,93,0.00,,,0.00,WUHU216HW,2012-11-16 00:30:00,
2012-11-15 16:35:00,43.6,41.7,29.96,West,270,0.4,2.0,93,0.00,,,0.00,WUHU216HW,2012-11-16 00:35:00,
2012-11-15 16:40:00,43.2,41.3,29.96,West,270,1.6,2.0,93,0.00,,,0.00,WUHU216HW,2012-11-16 00:40:00,
2012-11-15 16:45:00,43.2,41.3,29.96,WSW,248,1.8,1.8,93,0.00,,,0.00,WUHU216HW,2012-11-16 00:45:00,
2012-11-15 16:50:00,43.0,41.1,29.96,WSW,248,1.3,1.8,93,0.00,,,0.00,WUHU216HW,2012-11-16 00:50:00,
2012-11-15 16:55:00,42.8,41.0,29.96,WSW,248,1.8,1.8,93,0.00,,,0.00,WUHU216HW,2012-11-16 00:55:00,
2012-11-15 17:00:00,42.7,40.8,29.96,WSW,248,1.3,1.8,93,0.00,,,0.00,WUHU216HW,2012-11-16 01:00:00,
2012-11-15 17:05:00,42.5,40.6,29.96,WSW,248,1.1,1.6,93,0.00,,,0.00,WUHU216HW,2012-11-16 01:05:00,
2012-11-15 17:10:00,42.3,40.4,29.96,WSW,248,0.0,1.6,93,0.00,,,0.00,WUHU216HW,2012-11-16 01:10:00,
2012-11-15 17:15:00,42.1,40.2,29.96,West,270,0.7,1.8,93,0.00,,,0.00,WUHU216HW,2012-11-16 01:15:00,
2012-11-15 17:20:00,42.1,40.2,29.95,West,270,1.1,1.8,93,0.00,,,0.00,WUHU216HW,2012-11-16 01:20:00,
2012-11-15 17:25:00,42.1,40.2,29.96,West,270,1.1,1.3,93,0.00,,,0.00,WUHU216HW,2012-11-16 01:25:00,
2012-11-15 17:30:00,42.1,40.2,29.96,West,270,1.3,1.3,93,0.00,,,0.00,WUHU216HW,2012-11-16 01:30:00,
2012-11-15 17:35:00,42.1,40.2,29.96,West,270,1.1,1.6,93,0.00,,,0.00,WUHU216HW,2012-11-16 01:35:00,
2012-11-15 17:40:00,42.1,40.2,29.96,West,270,0.0,1.6,93,0.00,,,0.00,WUHU216HW,2012-11-16 01:40:00,
2012-11-15 17:45:00,42.1,40.2,29.96,West,270,1.1,1.1,93,0.00,,,0.00,WUHU216HW,2012-11-16 01:45:00,
2012-11-15 17:50:00,42.3,40.4,29.96,West,270,0.0,1.1,93,0.00,,,0.00,WUHU216HW,2012-11-16 01:50:00,
2012-11-15 17:55:00,42.3,40.4,29.96,West,270,0.9,1.1,93,0.00,,,0.00,WUHU216HW,2012-11-16 01:55:00,
2012-11-15 18:00:00,42.3,40.4,29.96,WSW,248,1.8,1.8,93,0.00,,,0.00,WUHU216HW,2012-11-16 02:00:00,
2012-11-15 18:05:00,42.3,40.4,29.96,West,270,1.1,2.0,93,0.00,,,0.00,WUHU216HW,2012-11-16 02:05:00,
2012-11-15 18:10:00,42.3,40.7,29.95,WSW,248,0.9,2.0,94,0.00,,,0.00,WUHU216HW,2012-11-16 02:10:00,
2012-11-15 18:15:00,42.3,40.7,29.96,WSW,248,0.9,1.8,94,0.00,,,0.00,WUHU216HW,2012-11-16 02:15:00,
2012-11-15 18:20:00,42.3,40.7,29.96,WSW,248,0.0,1.8,94,0.00,,,0.00,WUHU216HW,2012-11-16 02:20:00,
2012-11-15 18:25:00,42.3,40.7,29.95,WSW,248,0.4,2.0,94,0.00,,,0.00,WUHU216HW,2012-11-16 02:25:00,
2012-11-15 18:30:00,42.3,40.7,29.95,WSW,248,0.9,2.0,94,0.00,,,0.00,WUHU216HW,2012-11-16 02:30:00,
2012-11-15 18:35:00,42.5,40.9,29.95,WSW,248,1.3,1.8,94,0.00,,,0.00,WUHU216HW,2012-11-16 02:35:00,
2012-11-15 18:40:00,42.5,40.9,29.95,WSW,248,0.9,1.8,94,0.00,,,0.00,WUHU216HW,2012-11-16 02:40:00,
2012-11-15 18:45:00,42.5,40.9,29.96,WSW,248,1.1,1.3,94,0.00,,,0.00,WUHU216HW,2012-11-16 02:45:00,
2012-11-15 18:50:00,42.5,40.9,29.95,West,270,1.1,1.6,94,0.00,,,0.00,WUHU216HW,2012-11-16 02:50:00,
2012-11-15 18:55:00,42.5,40.9,29.95,West,270,0.4,1.6,94,0.00,,,0.00,WUHU216HW,2012-11-16 02:55:00,
2012-11-15 19:00:00,42.7,41.0,29.95,West,270,1.1,1.6,94,0.00,,,0.00,WUHU216HW,2012-11-16 03:00:00,
2012-11-15 19:05:00,42.7,41.0,29.95,West,270,0.7,1.1,94,0.00,,,0.00,WUHU216HW,2012-11-16 03:05:00,
2012-11-15 19:10:00,42.7,41.0,29.95,West,270,1.1,1.3,94,0.00,,,0.00,WUHU216HW,2012-11-16 03:10:00,
2012-11-15 19:16:00,42.7,41.0,29.95,West,270,0.9,1.6,94,0.00,,,0.00,WUHU216HW,2012-11-16 03:16:00,
2012-11-15 19:21:00,42.7,41.0,29.95,West,270,1.1,1.6,94,0.00,,,0.00,WUHU216HW,2012-11-16 03:21:00,
2012-11-15 19:26:00,42.7,41.0,29.95,West,270,1.1,1.8,94,0.00,,,0.00,WUHU216HW,2012-11-16 03:26:00,
2012-11-15 19:31:00,42.7,41.0,29.94,West,270,0.4,1.8,94,0.00,,,0.00,WUHU216HW,2012-11-16 03:31:00,
2012-11-15 19:36:00,42.7,41.0,29.94,West,270,0.4,1.1,94,0.00,,,0.00,WUHU216HW,2012-11-16 03:36:00,
2012-11-15 19:41:00,42.7,41.0,29.94,West,270,0.0,1.1,94,0.00,,,0.00,WUHU216HW,2012-11-16 03:41:00,
2012-11-15 19:46:00,42.5,40.9,29.94,West,270,0.4,0.7,94,0.00,,,0.00,WUHU216HW,2012-11-16 03:46:00,
2012-11-15 19:51:00,42.5,40.9,29.94,West,270,0.7,0.9,94,0.00,,,0.00,WUHU216HW,2012-11-16 03:51:00,
2012-11-15 19:56:00,42.5,40.9,29.94,WSW,248,2.0,2.0,94,0.00,,,0.00,WUHU216HW,2012-11-16 03:56:00,
2012-11-15 20:01:00,42.3,40.7,29.94,West,270,1.6,2.5,94,0.00,,,0.00,WUHU216HW,2012-11-16 04:01:00,
2012-11-15 20:06:00,42.1,40.5,29.94,WSW,248,1.3,2.5,94,0.00,,,0.00,WUHU216HW,2012-11-16 04:06:00,
2012-11-15 20:11:00,42.1,40.5,29.93,WSW,248,0.7,2.2,94,0.00,,,0.00,WUHU216HW,2012-11-16 04:11:00,
2012-11-15 20:16:00,42.1,40.5,29.93,WSW,248,1.1,1.6,94,0.00,,,0.00,WUHU216HW,2012-11-16 04:16:00,
2012-11-15 20:21:00,41.9,40.3,29.93,WSW,248,0.9,1.8,94,0.00,,,0.00,WUHU216HW,2012-11-16 04:21:00,
2012-11-15 20:26:00,41.9,40.3,29.93,WSW,248,1.1,1.8,94,0.00,,,0.00,WUHU216HW,2012-11-16 04:26:00,
2012-11-15 20:31:00,41.8,40.1,29.93,West,270,2.2,2.5,94,0.00,,,0.00,WUHU216HW,2012-11-16 04:31:00,
2012-11-15 20:36:00,41.8,40.1,29.93,West,270,1.3,2.5,94,0.00,,,0.00,WUHU216HW,2012-11-16 04:36:00,
2012-11-15 20:41:00,41.8,40.1,29.93,West,270,1.8,2.5,94,0.00,,,0.00,WUHU216HW,2012-11-16 04:41:00,
2012-11-15 20:46:00,41.8,40.1,29.93,WSW,248,1.8,2.0,94,0.00,,,0.00,WUHU216HW,2012-11-16 04:46:00,
2012-11-15 20:51:00,41.6,40.0,29.93,WSW,248,1.8,2.5,94,0.00,,,0.00,WUHU216HW,2012-11-16 04:51:00,
2012-11-15 20:56:00,41.4,39.8,29.94,West,270,0.9,2.5,94,0.00,,,0.00,WUHU216HW,2012-11-16 04:56:00,
2012-11-15 21:00:00,41.4,39.8,29.94,WSW,248,1.8,1.8,94,0.00,,,0.00,WUHU216HW,2012-11-16 05:00:00,
2012-11-15 21:05:00,41.4,39.8,29.93,West,270,1.1,2.0,94,0.00,,,0.00,WUHU216HW,2012-11-16 05:05:00,
2012-11-15 21:10:00,41.4,39.8,29.94,West,270,1.1,2.0,94,0.00,,,0.00,WUHU216HW,2012-11-16 05:10:00,
2012-11-15 21:15:00,41.4,39.8,29.93,West,270,0.9,1.8,94,0.00,,,0.00,WUHU216HW,2012-11-16 05:15:00,
2012-11-15 21:20:00,41.4,39.8,29.93,West,270,0.9,1.8,94,0.00,,,0.00,WUHU216HW,2012-11-16 05:20:00,
2012-11-15 21:25:00,41.4,39.8,29.93,West,270,0.7,1.8,94,0.00,,,0.00,WUHU216HW,2012-11-16 05:25:00,
2012-11-15 21:30:00,41.4,39.8,29.93,West,270,1.6,1.6,94,0.00,,,0.00,WUHU216HW,2012-11-16 05:30:00,
2012-11-15 21:35:00,41.6,40.0,29.93,WSW,248,1.8,1.8,94,0.00,,,0.00,WUHU216HW,2012-11-16 05:35:00,
2012-11-15 21:40:00,41.6,40.0,29.93,West,270,2.0,2.0,94,0.00,,,0.00,WUHU216HW,2012-11-16 05:40:00,
2012-11-15 21:45:00,41.8,40.1,29.93,West,270,2.0,2.2,94,0.00,,,0.00,WUHU216HW,2012-11-16 05:45:00,
2012-11-15 21:50:00,41.6,40.0,29.92,West,270,1.3,2.2,94,0.00,,,0.00,WUHU216HW,2012-11-16 05:50:00,
2012-11-15 21:55:00,41.6,40.0,29.92,WSW,248,2.0,2.0,94,0.00,,,0.00,WUHU216HW,2012-11-16 05:55:00,
2012-11-15 22:00:00,41.6,40.0,29.92,WSW,248,0.9,2.0,94,0.00,,,0.00,WUHU216HW,2012-11-16 06:00:00,
2012-11-15 22:05:00,41.4,39.8,29.92,WSW,248,1.1,2.0,94,0.00,,,0.00,WUHU216HW,2012-11-16 06:05:00,
2012-11-15 22:10:00,41.4,39.8,29.92,WSW,248,0.9,1.3,94,0.00,,,0.00,WUHU216HW,2012-11-16 06:10:00,
2012-11-15 22:15:00,41.2,39.6,29.92,West,270,1.3,1.8,94,0.00,,,0.00,WUHU216HW,2012-11-16 06:15:00,
2012-11-15 22:20:00,41.0,39.4,29.92,West,270,1.3,2.0,94,0.00,,,0.00,WUHU216HW,2012-11-16 06:20:00,
2012-11-15 22:25:00,41.0,39.4,29.92,WSW,248,1.8,2.0,94,0.00,,,0.00,WUHU216HW,2012-11-16 06:25:00,
2012-11-15 22:30:00,40.9,39.2,29.92,WSW,248,1.3,2.0,94,0.00,,,0.00,WUHU216HW,2012-11-16 06:30:00,
2012-11-15 22:35:00,40.9,39.2,29.92,WSW,248,1.8,2.0,94,0.00,,,0.00,WUHU216HW,2012-11-16 06:35:00,
2012-11-15 22:40:00,40.9,39.2,29.92,WSW,248,1.3,2.0,94,0.00,,,0.00,WUHU216HW,2012-11-16 06:40:00,
2012-11-15 22:45:00,40.9,39.2,29.92,West,270,2.0,2.5,94,0.00,,,0.00,WUHU216HW,2012-11-16 06:45:00,
2012-11-15 22:50:00,40.7,39.1,29.92,WSW,248,1.6,2.5,94,0.00,,,0.00,WUHU216HW,2012-11-16 06:50:00,
2012-11-15 22:55:00,40.7,39.1,29.91,West,270,1.8,2.0,94,0.00,,,0.00,WUHU216HW,2012-11-16 06:55:00,
2012-11-15 23:00:00,40.7,39.1,29.91,SW,225,1.1,1.8,94,0.00,,,0.00,WUHU216HW,2012-11-16 07:00:00,
2012-11-15 23:05:00,40.7,39.1,29.91,SW,225,0.7,1.8,94,0.00,,,0.00,WUHU216HW,2012-11-16 07:05:00,
2012-11-15 23:10:00,40.9,39.2,29.91,WSW,248,1.1,1.6,94,0.00,,,0.00,WUHU216HW,2012-11-16 07:10:00,
2012-11-15 23:15:00,40.9,39.2,29.91,WSW,248,1.1,1.3,94,0.00,,,0.00,WUHU216HW,2012-11-16 07:15:00,
2012-11-15 23:20:00,41.0,39.4,29.91,WSW,248,1.3,1.3,94,0.00,,,0.00,WUHU216HW,2012-11-16 07:20:00,
2012-11-15 23:25:00,41.0,39.4,29.91,WSW,248,2.5,2.7,94,0.00,,,0.00,WUHU216HW,2012-11-16 07:25:00,
2012-11-15 23:30:00,41.2,39.9,29.91,WSW,248,0.0,2.7,95,0.00,,,0.00,WUHU216HW,2012-11-16 07:30:00,
2012-11-15 23:35:00,41.4,40.1,29.91,WSW,248,0.0,2.5,95,0.00,,,0.00,WUHU216HW,2012-11-16 07:35:00,
2012-11-15 23:40:00,41.4,40.1,29.91,WSW,248,0.0,1.1,95,0.00,,,0.00,WUHU216HW,2012-11-16 07:40:00,
2012-11-15 23:45:00,41.6,40.2,29.91,SW,225,0.7,2.5,95,0.00,,,0.00,WUHU216HW,2012-11-16 07:45:00,
2012-11-15 23:50:00,41.8,40.4,29.91,NNW,338,0.4,2.9,95,0.00,,,0.00,WUHU216HW,2012-11-16 07:50:00,
2012-11-15 23:55:00,41.8,40.4,29.91,SW,225,0.4,2.9,95,0.00,,,0.00,WUHU216HW,2012-11-16 07:55:00,